Latest Weather Observations for Viewbank

IDV60801

Issued at 4:32 pm EST Monday 26 September 2016 (issued every 30 minutes, with the page automatically refreshed every 10 minutes)

About weather observations | Map of weather stations | Latest weather observations for VIC | Other Formats
Station Details ID: 086068 Name: VIEWBANK Lat: -37.74 Lon: 145.10 Height: 66.1 m
Data from the previous 72 hours. | See also: Recent months at Viewbank
Date/Time
EST
Temp
°C
App
Temp
°C
Dew
Point
°C
Rel
Hum
%
Delta-T
°C
Wind Press
QNH
hPa
Press
MSL
hPa
Rain since
9am
mm
Dir  Spd
km/h
Gust
km/h
Spd
kts
Gust
kts
26/04:30pm 15.2 11.5 4.6 49 5.0 N 13 20 7 11 1008.7 1008.7 0.0
26/04:00pm 15.3 11.5 4.1 47 5.2 NNW 13 19 7 10 1009.0 1009.0 0.0
26/03:30pm 15.5 11.8 4.3 47 5.2 NW 13 30 7 16 1009.1 1009.1 0.0
26/03:00pm 15.4 12.1 4.5 48 5.1 N 11 22 6 12 1009.3 1009.3 0.0
26/02:30pm 15.3 11.6 4.7 49 5.0 N 13 32 7 17 1009.5 1009.5 0.0
26/02:00pm 15.7 12.3 3.8 45 5.5 N 11 19 6 10 1009.7 1009.7 0.0
26/01:30pm 15.7 12.2 5.6 51 4.8 N 13 22 7 12 1009.9 1009.9 0.0
26/01:00pm 16.0 13.4 6.2 52 4.8 NE 9 20 5 11 1010.3 1010.3 0.0
26/12:30pm 15.3 12.2 7.3 59 4.0 NNE 13 17 7 9 1010.9 1010.9 0.0
26/12:00pm 15.6 12.0 5.2 50 5.0 NNE 13 20 7 11 1011.3 1011.4 0.0
26/11:30am 14.7 11.1 5.0 52 4.6 WNW 13 26 7 14 1011.5 1011.6 0.0
26/11:00am 15.2 11.5 4.6 49 5.0 NNW 13 22 7 12 1011.9 1012.0 0.0
26/10:30am 13.9 11.1 5.3 56 4.0 NNW 9 17 5 9 1012.5 1012.5 0.0
26/10:00am 13.7 10.7 5.8 59 3.8 N 11 22 6 12 1012.6 1012.6 0.0
26/09:30am 13.1 10.7 7.1 67 2.9 NNW 9 15 5 8 1012.9 1012.9 0.0
26/09:00am 12.0 10.3 8.3 78 1.8 ENE 7 11 4 6 1012.9 1012.9 0.4
26/08:30am 10.5 8.9 8.9 90 0.8 ENE 7 11 4 6 1013.2 1013.2 0.4
26/08:00am 9.2 7.7 9.2 100 0.0 ENE 7 11 4 6 1013.3 1013.3 0.4
26/07:30am 8.1 7.3 8.1 100 0.0 NE 2 6 1 3 1013.4 1013.4 0.4
26/07:00am 7.6 6.3 7.6 100 0.0 NE 4 6 2 3 1013.3 1013.3 0.4
26/06:30am 7.1 5.7 7.1 100 0.0 NE 4 7 2 4 1013.3 1013.3 0.4
26/06:00am 7.0 5.5 7.0 100 0.0 ENE 4 9 2 5 1013.2 1013.2 0.4
26/05:30am 7.0 5.9 7.0 100 0.0 NE 2 7 1 4 1013.2 1013.2 0.2
26/05:00am 6.9 5.4 6.9 100 0.0 NE 4 9 2 5 1013.2 1013.2 0.2
26/04:30am 6.8 6.1 6.8 100 0.0 CALM 0 0 0 0 1013.2 1013.2 0.0
26/04:00am 6.5 5.3 6.5 100 0.0 ENE 2 7 1 4 1013.1 1013.1 0.0
26/03:30am 6.4 5.6 6.4 100 0.0 CALM 0 6 0 3 1012.9 1012.9 0.0
26/03:00am 6.5 4.4 6.5 100 0.0 ENE 7 9 4 5 1012.9 1012.9 0.0
26/02:30am 6.2 4.2 6.2 100 0.0 E 6 9 3 5 1013.1 1013.1 0.0
26/02:00am 5.8 3.7 5.8 100 0.0 ENE 6 7 3 4 1013.5 1013.5 0.0
26/01:30am 5.8 4.1 5.8 100 0.0 NE 4 7 2 4 1013.6 1013.6 0.0
26/01:00am 6.3 5.0 6.2 99 0.0 NE 2 7 1 4 1013.9 1013.9 0.0
26/12:30am 6.7 5.5 6.6 99 0.0 NNE 2 7 1 4 1013.9 1013.9 0.0
26/12:00am 7.0 5.5 6.9 99 0.0 NE 4 7 2 4 1013.9 1013.9 0.0
 
Date/Time
EST
Temp
°C
App
Temp
°C
Dew
Point
°C
Rel
Hum
%
Delta-T
°C
Wind Press
QNH
hPa
Press
MSL
hPa
Rain since
9am
mm
Dir  Spd
km/h
Gust
km/h
Spd
kts
Gust
kts
25/11:30pm 7.7 6.0 7.4 98 0.1 N 6 9 3 5 1014.2 1014.2 0.0
25/11:00pm 8.5 7.4 7.1 91 0.7 N 2 6 1 3 1014.5 1014.5 0.0
25/10:30pm 8.7 8.1 7.2 90 0.7 CALM 0 0 0 0 1014.6 1014.6 0.0
25/10:00pm 9.0 8.3 7.0 87 0.9 CALM 0 6 0 3 1014.7 1014.7 0.0
25/09:30pm 9.7 8.8 5.9 77 1.8 CALM 0 0 0 0 1014.5 1014.5 0.0
25/09:00pm 9.6 8.6 5.4 75 1.9 CALM 0 0 0 0 1014.6 1014.6 0.0
25/08:30pm 10.0 7.8 5.4 73 2.1 SW 6 7 3 4 1014.4 1014.4 0.0
25/08:00pm 9.6 7.4 5.4 75 1.9 SW 6 9 3 5 1014.1 1014.1 0.0
25/07:30pm 9.9 7.6 5.5 74 2.0 SW 7 9 4 5 1013.7 1013.7 0.0
25/07:00pm 10.4 7.9 5.0 69 2.5 SSW 7 9 4 5 1013.1 1013.1 0.0
25/06:30pm 10.8 8.5 4.9 67 2.7 SSW 6 11 3 6 1012.6 1012.6 0.0
25/06:00pm 11.5 8.6 4.9 64 3.0 SSW 9 15 5 8 1012.3 1012.3 0.0
25/05:30pm 12.1 9.2 4.8 61 3.3 SW 9 13 5 7 1012.0 1012.1 0.0
25/05:00pm 13.1 11.0 5.8 61 3.5 WSW 6 13 3 7 1011.8 1011.9 0.0
25/04:30pm 13.4 10.1 4.8 56 4.0 SW 11 20 6 11 1011.5 1011.6 0.0
25/04:00pm 12.4 8.8 4.9 60 3.5 SW 13 20 7 11 1011.6 1011.7 0.0
25/03:30pm 12.9 9.6 4.3 56 3.9 SW 11 22 6 12 1011.6 1011.7 0.0
25/03:00pm 13.1 9.2 5.3 59 3.6 SW 15 28 8 15 1011.7 1011.8 0.0
25/02:30pm 13.1 8.7 5.0 58 3.8 SSW 17 24 9 13 1011.4 1011.5 0.0
25/02:00pm 12.6 7.8 4.6 58 3.7 SW 19 30 10 16 1011.6 1011.7 0.0
25/01:30pm 13.3 8.6 5.0 57 3.9 SW 19 28 10 15 1011.5 1011.6 0.0
25/01:00pm 12.4 8.4 4.9 60 3.5 SW 15 24 8 13 1011.7 1011.8 0.0
25/12:30pm 12.7 8.3 4.9 59 3.6 SW 17 26 9 14 1011.7 1011.8 0.0
25/12:00pm 13.7 9.6 6.3 61 3.6 SW 17 24 9 13 1011.7 1011.8 0.0
25/11:30am 13.6 9.6 5.0 56 4.0 WSW 15 22 8 12 1011.6 1011.7 0.0
25/11:00am 12.8 8.9 5.2 60 3.5 WSW 15 24 8 13 1011.7 1011.8 0.0
25/10:30am 13.3 8.6 5.2 58 3.8 WSW 19 28 10 15 1011.6 1011.7 0.0
25/10:00am 12.5 8.2 5.4 62 3.3 WSW 17 30 9 16 1011.6 1011.7 0.0
25/09:30am 12.2 8.3 6.9 70 2.5 WSW 17 28 9 15 1011.6 1011.7 0.0
25/09:00am 11.3 7.5 6.0 70 2.5 W 15 22 8 12 1011.1 1011.1 9.0
25/08:30am 10.6 7.2 5.8 72 2.2 WSW 13 24 7 13 1011.0 1011.0 9.0
25/08:00am 9.8 5.8 6.5 80 1.5 W 17 28 9 15 1010.7 1010.7 9.0
25/07:30am 9.4 6.9 8.2 92 0.6 W 11 22 6 12 1010.4 1010.4 9.0
25/07:00am 8.5 6.4 8.4 99 0.0 W 9 13 5 7 1010.1 1010.1 9.0
25/06:30am 8.4 5.9 8.3 99 0.0 W 11 15 6 8 1009.7 1009.7 9.0
25/06:00am 8.8 6.0 8.7 99 0.0 W 13 19 7 10 1009.2 1009.2 9.0
25/05:30am 9.3 6.7 9.2 99 0.0 W 13 19 7 10 1008.9 1008.9 9.0
25/05:00am 9.7 6.8 9.6 99 0.1 WSW 15 22 8 12 1008.5 1008.5 9.0
25/04:30am 9.9 7.0 9.8 99 0.1 W 15 20 8 11 1008.2 1008.2 9.0
25/04:00am 10.3 7.5 10.1 99 0.1 W 15 24 8 13 1007.7 1007.7 9.0
25/03:30am 10.9 8.4 10.9 100 0.0 W 15 28 8 15 1007.2 1007.2 9.0
25/03:00am 11.1 9.4 11.1 100 0.0 W 11 20 6 11 1007.1 1007.1 9.0
25/02:30am 11.3 10.0 11.3 100 0.0 W 9 13 5 7 1007.1 1007.1 9.0
25/02:00am 11.3 10.0 11.3 100 0.0 W 9 13 5 7 1007.1 1007.1 8.8
25/01:30am 11.9 11.2 11.9 100 0.0 NW 7 13 4 7 1007.1 1007.1 7.0
25/01:00am 11.8 11.6 11.8 100 0.0 NE 4 6 2 3 1006.8 1006.8 4.4
25/12:30am 11.8 11.2 11.8 100 0.0 NE 6 9 3 5 1006.7 1006.7 3.8
25/12:00am 12.0 12.2 12.0 100 0.0 ENE 2 7 1 4 1006.7 1006.7 3.0
 
Date/Time
EST
Temp
°C
App
Temp
°C
Dew
Point
°C
Rel
Hum
%
Delta-T
°C
Wind Press
QNH
hPa
Press
MSL
hPa
Rain since
9am
mm
Dir  Spd
km/h
Gust
km/h
Spd
kts
Gust
kts
24/11:30pm 12.2 11.7 12.2 100 0.0 NE 6 7 3 4 1006.8 1006.8 1.8
24/11:00pm 12.6 13.4 12.4 99 0.1 CALM 0 0 0 0 1006.9 1006.9 0.8
24/10:30pm 12.9 12.1 11.1 89 0.9 ENE 6 11 3 6 1006.7 1006.7 0.4
24/10:00pm 13.6 11.9 9.8 78 2.0 N 9 15 5 8 1006.7 1006.7 0.0
24/09:30pm 14.2 11.5 9.0 71 2.6 N 13 22 7 12 1006.7 1006.7 0.0
24/09:00pm 14.3 12.4 8.9 70 2.8 NE 9 20 5 11 1006.7 1006.7 0.0
24/08:30pm 14.3 11.6 9.1 71 2.7 NNE 13 24 7 13 1006.9 1006.9 0.0
24/08:00pm 14.6 12.0 9.2 70 2.8 NNW 13 20 7 11 1006.8 1006.8 0.0
24/07:30pm 14.8 11.4 9.0 68 3.0 N 17 28 9 15 1006.6 1006.6 0.0
24/07:00pm 15.2 12.1 8.7 65 3.3 NE 15 24 8 13 1006.5 1006.5 0.0
24/06:30pm 16.1 13.4 7.3 56 4.4 NE 11 24 6 13 1006.4 1006.4 0.0
24/06:00pm 16.4 13.7 7.3 55 4.6 ENE 11 19 6 10 1006.2 1006.2 0.0
24/05:30pm 16.7 13.6 7.4 54 4.7 ENE 13 24 7 13 1006.1 1006.1 0.0
24/05:00pm 16.9 13.4 7.0 52 4.9 NE 15 26 8 14 1005.9 1005.9 0.0
24/04:30pm 17.1 13.5 6.9 51 5.1 NE 15 30 8 16 1005.7 1005.7 0.0
24/04:00pm 17.4 13.5 7.2 51 5.1 NE 17 32 9 17 1005.7 1005.7 0.0
24/03:30pm 18.3 13.8 6.8 47 5.8 NNE 20 33 11 18 1005.7 1005.7 0.0
24/03:00pm 18.3 13.2 6.2 45 6.0 NE 22 44 12 24 1006.2 1006.2 0.0
24/02:30pm 18.4 13.7 5.9 44 6.2 NE 20 33 11 18 1006.4 1006.4 0.0
24/02:00pm 18.3 13.8 6.8 47 5.8 NNE 20 35 11 19 1006.6 1006.6 0.0
24/01:33pm 18.1 12.2 6.0 45 6.0 NNE 26 46 14 25 1006.9 1006.9 0.0
24/01:30pm 18.6 13.1 6.1 44 6.2 NNE 24 44 13 24 1006.9 1006.9 0.0
24/01:25pm 18.1 13.0 6.0 45 6.0 NNE 22 44 12 24 1006.9 1006.9 0.0
24/01:00pm 17.5 13.1 6.4 48 5.5 NNE 19 37 10 20 1006.6 1006.6 0.0
24/12:30pm 17.7 13.0 5.9 46 5.8 NNE 20 37 11 20 1007.4 1007.4 0.0
24/12:00pm 18.4 14.7 7.8 50 5.4 E 17 30 9 16 1007.7 1007.7 0.0
24/11:30am 17.5 13.1 6.4 48 5.5 NE 19 32 10 17 1007.8 1007.8 0.0
24/11:00am 17.0 11.6 6.5 50 5.2 ENE 24 37 13 20 1008.2 1008.2 0.0
24/10:30am 16.9 12.7 7.3 53 4.8 ENE 19 37 10 20 1008.4 1008.4 0.0
24/10:00am 16.0 11.8 5.9 51 4.9 NE 17 28 9 15 1009.3 1009.3 0.0
24/09:30am 15.7 12.2 8.7 63 3.6 NE 17 30 9 16 1009.6 1009.6 0.0
24/09:00am 14.5 12.6 8.9 69 2.9 NNE 9 20 5 11 1010.0 1010.0 0.0
24/08:30am 13.6 12.6 10.2 80 1.8 NNE 6 11 3 6 1010.1 1010.1 0.0
24/08:00am 12.3 11.7 10.5 89 0.9 N 4 9 2 5 1010.3 1010.3 0.0
24/07:30am 10.2 9.9 10.1 99 0.1 NE 2 9 1 5 1010.4 1010.4 0.0
24/07:00am 10.4 9.7 10.2 99 0.1 NNE 4 9 2 5 1010.4 1010.4 0.0
24/06:30am 9.5 9.4 9.4 99 0.0 CALM 0 6 0 3 1010.1 1010.1 0.0
24/06:00am 9.0 8.8 8.9 99 0.0 CALM 0 6 0 3 1010.1 1010.1 0.0
24/05:30am 9.3 9.1 9.2 99 0.0 CALM 0 4 0 2 1010.0 1010.0 0.0
24/05:00am 9.7 9.6 9.6 99 0.1 CALM 0 0 0 0 1010.0 1010.0 0.0
24/04:30am 10.0 9.6 9.9 99 0.1 NNE 2 6 1 3 1010.0 1010.0 0.0
24/04:00am 9.8 9.4 9.7 99 0.1 NNE 2 7 1 4 1010.0 1010.0 0.0
24/03:30am 9.7 8.5 9.6 99 0.1 NNE 6 9 3 5 1010.0 1010.0 0.0
24/03:00am 9.6 9.1 9.5 99 0.0 NNE 2 6 1 3 1010.1 1010.1 0.0
24/02:30am 9.9 9.5 9.8 99 0.1 N 2 7 1 4 1010.5 1010.5 0.0
24/02:00am 9.6 8.8 9.6 100 0.0 N 4 7 2 4 1010.8 1010.8 0.0
24/01:30am 8.9 8.7 8.9 100 0.0 CALM 0 6 0 3 1011.0 1011.0 0.0
24/01:00am 9.3 8.4 9.3 100 0.0 N 4 9 2 5 1011.2 1011.2 0.0
24/12:30am 9.4 8.5 9.4 100 0.0 NE 4 9 2 5 1010.9 1010.9 0.0
24/12:00am 9.8 9.8 9.8 100 0.0 CALM 0 6 0 3 1011.0 1011.0 0.0
 
Date/Time
EST
Temp
°C
App
Temp
°C
Dew
Point
°C
Rel
Hum
%
Delta-T
°C
Wind Press
QNH
hPa
Press
MSL
hPa
Rain since
9am
mm
Dir  Spd
km/h
Gust
km/h
Spd
kts
Gust
kts
23/11:30pm 10.4 10.1 10.2 99 0.1 SE 2 7 1 4 1011.0 1011.0 0.0
23/11:00pm 10.9 10.4 10.7 99 0.1 SE 4 7 2 4 1011.0 1011.0 0.0
23/10:30pm 11.4 11.8 11.2 99 0.1 CALM 0 0 0 0 1011.2 1011.2 0.0
23/10:00pm 11.6 11.2 11.0 96 0.3 SE 4 7 2 4 1011.2 1011.2 0.0
23/09:30pm 12.0 12.2 10.4 90 0.8 CALM 0 0 0 0 1011.4 1011.5 0.0
23/09:00pm 12.4 12.6 10.5 88 1.0 CALM 0 0 0 0 1011.6 1011.7 0.0
23/08:30pm 13.0 12.6 9.8 81 1.6 SW 2 7 1 4 1011.6 1011.7 0.0
23/08:00pm 12.9 12.9 9.7 81 1.6 CALM 0 0 0 0 1011.5 1011.6 0.0
23/07:30pm 13.4 12.2 9.5 77 2.0 SW 6 9 3 5 1011.6 1011.7 0.0
23/07:00pm 13.6 12.3 9.3 75 2.2 SW 6 7 3 4 1011.5 1011.6 0.0
23/06:30pm 14.2 12.3 9.0 71 2.6 SSW 9 15 5 8 1011.3 1011.4 0.0
23/06:00pm 15.1 13.3 9.5 69 2.9 SSW 9 13 5 7 1011.3 1011.4 0.0
23/05:30pm 16.1 14.7 9.5 65 3.4 SW 7 11 4 6 1011.2 1011.2 0.0
23/05:00pm 16.8 15.1 10.0 64 3.6 SSW 9 13 5 7 1011.2 1011.2 0.0

Other Formats:

Comma delimited format used in spreadsheet applications
http://www.bom.gov.au/fwo/IDV60801/IDV60801.95874.axf

JavaScript Object Notation format (JSON) in row-major order
http://www.bom.gov.au/fwo/IDV60801/IDV60801.95874.json